Branson, Missouri
Current Conditions -  °F | °C
As of 10:45 AM on Thursday 27 Nov 2014 (Local Time) from KBBG Reporting Station
Few Clouds Few Clouds  
Wind Chill: 36°   Ceiling: Unl
Heat Index: 39°   Visibility: 10mi
Dew Point: 25°   Wind: 5mph
Humidity: 56%   Direction: 310°NW
Pressure: 30.52"   Gusts: NA
Location:  36.65°N, 93.25°W
Report Text: KBBG 271645Z 31004KT 10SM FEW016 04/M04 A3052
Loading
Personal Weather Stations






























Interactive Weather Map New forecast layout! Learn more

10-Day Weather Forecast

Advertisements
Track Severe Weather on mobile